Terminal Aerodrome Forecast
Issued by NWS

Home | Current Version | Previous Version | Graphics & Text | Print | Product List | Glossary On
Versions: 1 2 3 4 5 6 7 8 9 10 11 12 13 14 15 16 17 18 19 20 21 22 23 24 25 26
693
FTUS43 KLOT 070537
TAFMDW
TAF
KMDW 070537Z 0706/0806 20007KT P6SM BKN150
     FM071100 22014G22KT P6SM BKN180
     FM071600 24014G22KT P6SM BKN180
     FM072300 25010KT P6SM BKN040=

USA.gov is the U.S. government's official web portal to all federal, state and local government web resources and services.